Time;durP1;ratioP1;P1;durP2;ratioP2;P2;SDS_P1;SDS_P2;PMS_P1;PMS_P2;Temp;Humidity;BMP_temperature;BMP_pressure;BME280_temperature;BME280_humidity;BME280_pressure;Samples;Min_cycle;Max_cycle;Signal;HPM_P1;HPM_P2
2023/03/14 00:01:28;;;;;;;11.57;5.88;;;;;;;;;;4967932;28;20089;-65
2023/03/14 00:03:55;;;;;;;13.32;6.63;;;;;;;;;;4984977;28;20625;-63
2023/03/14 00:06:22;;;;;;;14.40;7.00;;;;;;;;;;4987525;28;20133;-64
2023/03/14 00:08:49;;;;;;;17.83;7.97;;;;;;;;;;4983110;28;20038;-65
2023/03/14 00:11:18;;;;;;;12.23;7.00;;;;;;;;;;5001017;28;20069;-64
2023/03/14 00:13:48;;;;;;;12.60;6.45;;;;;;;;;;4999745;28;20165;-62
2023/03/14 00:16:15;;;;;;;14.15;6.43;;;;;;;;;;5015276;28;20045;-62
2023/03/14 00:18:42;;;;;;;13.98;6.45;;;;;;;;;;5019766;28;20041;-63
2023/03/14 00:21:09;;;;;;;14.98;7.07;;;;;;;;;;5007220;28;20049;-64
2023/03/14 00:23:37;;;;;;;14.35;6.57;;;;;;;;;;5023515;28;20041;-63
2023/03/14 00:26:05;;;;;;;16.58;7.10;;;;;;;;;;5034777;28;20052;-64
2023/03/14 00:28:33;;;;;;;14.60;6.72;;;;;;;;;;5016612;28;20160;-63
2023/03/14 00:30:59;;;;;;;14.40;6.97;;;;;;;;;;5022979;28;20061;-63
2023/03/14 00:33:26;;;;;;;14.70;6.95;;;;;;;;;;5035416;28;20120;-66
2023/03/14 00:35:55;;;;;;;14.90;7.20;;;;;;;;;;5024779;28;20045;-63
2023/03/14 00:38:24;;;;;;;13.00;7.03;;;;;;;;;;5024870;28;20067;-62
2023/03/14 00:40:51;;;;;;;13.75;6.80;;;;;;;;;;5024761;28;20068;-64
2023/03/14 00:43:18;;;;;;;13.48;6.65;;;;;;;;;;5020639;28;20049;-62
2023/03/14 00:45:45;;;;;;;14.63;7.28;;;;;;;;;;5015073;28;20038;-63
2023/03/14 00:48:13;;;;;;;17.20;7.65;;;;;;;;;;5038688;28;20036;-66
2023/03/14 00:50:42;;;;;;;13.80;6.95;;;;;;;;;;5032811;28;20076;-63
2023/03/14 00:53:09;;;;;;;14.40;7.43;;;;;;;;;;5024567;28;20121;-63
2023/03/14 00:55:40;;;;;;;15.45;7.20;;;;;;;;;;5022714;28;20045;-62
2023/03/14 00:58:07;;;;;;;12.65;6.93;;;;;;;;;;5036429;28;20188;-63
2023/03/14 01:00:33;;;;;;;17.70;7.53;;;;;;;;;;5032641;28;20045;-63
2023/03/14 01:03:01;;;;;;;13.65;7.22;;;;;;;;;;5034148;28;20709;-63
2023/03/14 01:05:28;;;;;;;16.48;7.30;;;;;;;;;;5015765;28;20052;-63
2023/03/14 01:07:55;;;;;;;13.02;6.40;;;;;;;;;;5038477;28;20045;-64
2023/03/14 01:10:22;;;;;;;14.98;7.75;;;;;;;;;;5018989;28;20362;-63
2023/03/14 01:12:49;;;;;;;15.70;7.38;;;;;;;;;;5023745;28;20055;-62
2023/03/14 01:15:16;;;;;;;14.23;6.70;;;;;;;;;;5015915;28;20503;-64
2023/03/14 01:17:43;;;;;;;12.27;6.70;;;;;;;;;;5037256;28;20306;-64
2023/03/14 01:20:11;;;;;;;13.00;6.65;;;;;;;;;;5038126;28;20037;-63
2023/03/14 01:22:44;;;;;;;13.05;6.68;;;;;;;;;;5036674;28;20592;-62
2023/03/14 01:25:17;;;;;;;14.18;7.05;;;;;;;;;;5027182;28;20051;-63
2023/03/14 01:27:44;;;;;;;15.98;7.93;;;;;;;;;;5023746;28;20052;-62
2023/03/14 01:30:14;;;;;;;12.25;6.95;;;;;;;;;;5024455;28;20694;-64
2023/03/14 01:32:41;;;;;;;12.00;7.00;;;;;;;;;;5038528;28;20056;-64
2023/03/14 01:35:08;;;;;;;14.73;6.95;;;;;;;;;;5026164;28;20125;-63
2023/03/14 01:37:35;;;;;;;14.57;7.53;;;;;;;;;;5026652;28;20344;-62
2023/03/14 01:40:03;;;;;;;14.10;7.38;;;;;;;;;;5026295;28;20083;-62
2023/03/14 01:42:30;;;;;;;14.25;7.78;;;;;;;;;;5026307;28;20509;-61
2023/03/14 01:44:58;;;;;;;14.50;7.43;;;;;;;;;;5027732;28;20049;-63
2023/03/14 01:47:25;;;;;;;17.23;7.72;;;;;;;;;;5037068;28;20225;-63
2023/03/14 01:50:12;;;;;;;18.25;7.60;;;;;;;;;;5025424;28;20421;-62
2023/03/14 01:52:49;;;;;;;15.13;7.97;;;;;;;;;;5025126;28;20116;-63
2023/03/14 01:55:20;;;;;;;11.40;6.35;;;;;;;;;;5024894;28;20041;-62
2023/03/14 01:57:51;;;;;;;17.48;7.20;;;;;;;;;;5024490;28;20046;-63
2023/03/14 02:00:20;;;;;;;14.80;7.90;;;;;;;;;;5027662;28;20085;-63
2023/03/14 02:02:50;;;;;;;17.50;8.00;;;;;;;;;;5019358;28;20044;-64
2023/03/14 02:05:19;;;;;;;17.63;7.45;;;;;;;;;;5028355;28;20044;-61
2023/03/14 02:07:54;;;;;;;14.43;7.45;;;;;;;;;;5026583;28;20049;-62
2023/03/14 02:10:25;;;;;;;14.55;7.57;;;;;;;;;;5024040;28;20049;-63
2023/03/14 02:12:53;;;;;;;14.98;6.90;;;;;;;;;;5018593;28;20090;-65
2023/03/14 02:15:20;;;;;;;13.98;7.30;;;;;;;;;;5030025;28;20128;-62
2023/03/14 02:17:50;;;;;;;14.88;7.03;;;;;;;;;;5058764;28;20048;-63
2023/03/14 02:20:31;;;;;;;15.07;7.65;;;;;;;;;;5024307;28;20049;-62
2023/03/14 02:22:58;;;;;;;18.15;8.45;;;;;;;;;;5034111;28;20428;-63
2023/03/14 02:25:35;;;;;;;13.55;7.68;;;;;;;;;;5022677;28;20037;-61
2023/03/14 02:28:02;;;;;;;19.85;8.07;;;;;;;;;;5026583;28;20045;-64
2023/03/14 02:30:31;;;;;;;16.10;7.78;;;;;;;;;;5023581;28;20034;-63
2023/03/14 02:33:15;;;;;;;13.88;7.57;;;;;;;;;;5024478;28;20044;-64
2023/03/14 02:35:47;;;;;;;14.35;7.50;;;;;;;;;;5024122;28;20045;-62
2023/03/14 02:38:23;;;;;;;20.42;9.27;;;;;;;;;;5024193;28;20055;-64
2023/03/14 02:40:50;;;;;;;17.38;8.32;;;;;;;;;;5016308;28;20357;-61
2023/03/14 02:43:19;;;;;;;18.77;8.68;;;;;;;;;;5022201;28;20045;-62
2023/03/14 02:45:47;;;;;;;17.10;8.85;;;;;;;;;;5023680;28;20043;-63
2023/03/14 02:48:16;;;;;;;20.98;8.63;;;;;;;;;;5024332;28;20041;-62
2023/03/14 02:50:44;;;;;;;17.33;8.18;;;;;;;;;;5023037;28;20576;-63
2023/03/14 02:53:13;;;;;;;19.98;9.45;;;;;;;;;;5057275;28;20091;-64
2023/03/14 02:55:39;;;;;;;17.52;8.48;;;;;;;;;;5023459;28;20490;-63
2023/03/14 02:58:06;;;;;;;14.82;7.40;;;;;;;;;;5055178;28;20315;-63
2023/03/14 03:00:33;;;;;;;17.23;8.05;;;;;;;;;;5042576;28;20062;-64
2023/03/14 03:03:10;;;;;;;;;;;;;;;;;;;;;
2023/03/14 03:05:48;;;;;;;19.67;8.40;;;;;;;;;;5050216;28;20094;-65
2023/03/14 03:08:15;;;;;;;24.48;8.05;;;;;;;;;;5044440;28;20036;-64
2023/03/14 03:10:42;;;;;;;16.30;8.07;;;;;;;;;;5043512;28;20032;-63
2023/03/14 03:13:09;;;;;;;17.17;7.85;;;;;;;;;;5057512;28;20062;-64
2023/03/14 03:15:36;;;;;;;18.05;8.73;;;;;;;;;;5036785;28;20155;-63
2023/03/14 03:18:03;;;;;;;19.13;9.00;;;;;;;;;;5055155;28;20063;-63
2023/03/14 03:20:30;;;;;;;15.75;7.97;;;;;;;;;;5034123;28;20051;-62
2023/03/14 03:22:57;;;;;;;20.63;9.05;;;;;;;;;;5038593;28;20047;-63
2023/03/14 03:25:26;;;;;;;17.85;8.98;;;;;;;;;;5046303;28;20119;-65
2023/03/14 03:27:56;;;;;;;20.67;9.68;;;;;;;;;;5074820;28;20417;-66
2023/03/14 03:30:23;;;;;;;16.80;8.88;;;;;;;;;;5027582;28;20044;-64
2023/03/14 03:32:49;;;;;;;19.50;9.07;;;;;;;;;;5039581;28;20040;-65
2023/03/14 03:35:16;;;;;;;18.00;8.60;;;;;;;;;;5044513;28;20060;-65
2023/03/14 03:37:43;;;;;;;22.67;9.02;;;;;;;;;;5022431;28;20694;-65
2023/03/14 03:40:10;;;;;;;18.50;9.07;;;;;;;;;;5020404;28;20029;-65
2023/03/14 03:42:36;;;;;;;20.65;9.25;;;;;;;;;;5021172;28;20402;-64
2023/03/14 03:45:04;;;;;;;22.55;9.43;;;;;;;;;;5023512;28;20120;-63
2023/03/14 03:47:31;;;;;;;16.58;8.55;;;;;;;;;;5022586;28;20041;-63
2023/03/14 03:49:58;;;;;;;16.27;8.73;;;;;;;;;;5021067;28;20128;-64
2023/03/14 03:52:24;;;;;;;18.15;9.15;;;;;;;;;;5021028;28;20638;-65
2023/03/14 03:54:51;;;;;;;28.10;9.55;;;;;;;;;;5036428;28;20117;-64
2023/03/14 03:57:37;;;;;;;22.95;9.65;;;;;;;;;;5022381;28;20130;-65
2023/03/14 04:00:05;;;;;;;20.20;10.05;;;;;;;;;;5020264;28;20033;-65
2023/03/14 04:02:32;;;;;;;26.20;9.75;;;;;;;;;;5031552;28;20075;-65
2023/03/14 04:04:58;;;;;;;27.90;10.80;;;;;;;;;;5022148;28;20074;-66
2023/03/14 04:07:25;;;;;;;21.55;9.43;;;;;;;;;;5033397;28;20145;-63
2023/03/14 04:09:52;;;;;;;20.08;8.40;;;;;;;;;;5022510;28;20076;-64
2023/03/14 04:12:18;;;;;;;17.70;8.65;;;;;;;;;;5020507;28;20104;-63
2023/03/14 04:14:46;;;;;;;16.60;8.88;;;;;;;;;;5020288;28;20037;-64
2023/03/14 04:17:13;;;;;;;26.55;9.05;;;;;;;;;;5021911;28;20766;-63
2023/03/14 04:19:39;;;;;;;21.40;9.55;;;;;;;;;;5006758;28;20056;-65
2023/03/14 04:22:06;;;;;;;13.05;6.78;;;;;;;;;;5021448;28;20497;-64
2023/03/14 04:24:32;;;;;;;22.42;8.57;;;;;;;;;;5020084;28;20084;-63
2023/03/14 04:26:59;;;;;;;20.45;9.77;;;;;;;;;;5015615;28;20064;-64
2023/03/14 04:29:26;;;;;;;13.52;5.70;;;;;;;;;;5022482;28;20192;-64
2023/03/14 04:31:52;;;;;;;13.70;5.43;;;;;;;;;;5023839;28;20076;-64
2023/03/14 04:34:19;;;;;;;15.32;5.55;;;;;;;;;;5023820;28;20057;-65
2023/03/14 04:36:46;;;;;;;23.20;11.13;;;;;;;;;;5013782;28;20036;-64
2023/03/14 04:39:12;;;;;;;25.77;10.60;;;;;;;;;;5021066;28;20033;-63
2023/03/14 04:41:39;;;;;;;17.30;6.25;;;;;;;;;;5018095;28;20361;-62
2023/03/14 04:44:05;;;;;;;21.15;6.43;;;;;;;;;;5034404;28;20162;-63
2023/03/14 04:46:32;;;;;;;12.60;5.50;;;;;;;;;;5023361;28;20112;-64
2023/03/14 04:48:59;;;;;;;6.72;3.20;;;;;;;;;;5022387;28;20178;-63
2023/03/14 04:51:27;;;;;;;11.27;5.40;;;;;;;;;;5022175;28;20127;-69
2023/03/14 04:53:54;;;;;;;9.75;6.03;;;;;;;;;;5020582;28;20600;-62
2023/03/14 04:56:21;;;;;;;9.40;5.10;;;;;;;;;;5050220;28;20495;-63
2023/03/14 04:58:48;;;;;;;8.52;3.88;;;;;;;;;;5025238;28;20039;-70
2023/03/14 05:01:14;;;;;;;16.42;7.30;;;;;;;;;;5029176;28;20157;-63
2023/03/14 05:04:01;;;;;;;8.57;4.22;;;;;;;;;;5026271;28;20136;-63
2023/03/14 05:06:27;;;;;;;12.93;5.75;;;;;;;;;;5022937;28;20107;-64
2023/03/14 05:08:54;;;;;;;11.98;5.97;;;;;;;;;;5024282;28;20128;-65
2023/03/14 05:11:21;;;;;;;16.48;8.40;;;;;;;;;;5025328;28;20081;-63
2023/03/14 05:13:47;;;;;;;16.95;6.07;;;;;;;;;;5023404;28;20578;-63
2023/03/14 05:16:14;;;;;;;13.15;6.47;;;;;;;;;;5023783;28;20041;-64
2023/03/14 05:18:41;;;;;;;18.63;8.32;;;;;;;;;;5022067;28;20149;-64
2023/03/14 05:21:07;;;;;;;16.65;7.88;;;;;;;;;;5006765;28;20041;-65
2023/03/14 05:23:34;;;;;;;22.30;8.95;;;;;;;;;;5023723;28;20038;-64
2023/03/14 05:26:00;;;;;;;20.67;10.15;;;;;;;;;;5020334;28;20046;-64
2023/03/14 05:28:28;;;;;;;13.00;6.82;;;;;;;;;;5021764;28;20034;-64
2023/03/14 05:30:54;;;;;;;16.88;7.63;;;;;;;;;;5022646;28;20121;-64
2023/03/14 05:33:21;;;;;;;17.60;7.13;;;;;;;;;;5024722;28;20045;-64
2023/03/14 05:35:47;;;;;;;18.98;8.95;;;;;;;;;;5024219;28;20123;-63
2023/03/14 05:38:14;;;;;;;16.25;7.30;;;;;;;;;;5021271;28;20596;-64
2023/03/14 05:40:41;;;;;;;20.88;8.85;;;;;;;;;;5023157;28;21596;-65
2023/03/14 05:43:08;;;;;;;17.45;6.97;;;;;;;;;;5024964;28;20668;-64
2023/03/14 05:45:35;;;;;;;11.38;5.03;;;;;;;;;;5025868;28;20038;-64
2023/03/14 05:48:02;;;;;;;19.20;6.70;;;;;;;;;;5026238;28;20037;-65
2023/03/14 05:50:28;;;;;;;11.05;5.68;;;;;;;;;;5027185;28;20041;-64
2023/03/14 05:52:55;;;;;;;13.38;5.38;;;;;;;;;;5027042;28;20060;-64
2023/03/14 05:55:22;;;;;;;14.90;5.38;;;;;;;;;;5025132;28;20039;-65
2023/03/14 05:57:48;;;;;;;15.95;6.78;;;;;;;;;;5027261;28;20045;-64
2023/03/14 06:00:16;;;;;;;14.75;7.30;;;;;;;;;;5026469;28;20069;-65
2023/03/14 06:02:43;;;;;;;28.42;5.45;;;;;;;;;;5026551;28;20071;-65
2023/03/14 06:05:10;;;;;;;17.50;9.63;;;;;;;;;;5026018;28;20030;-65
2023/03/14 06:07:36;;;;;;;19.10;7.07;;;;;;;;;;5025272;28;20045;-64
2023/03/14 06:10:03;;;;;;;15.48;5.82;;;;;;;;;;5023004;28;20438;-65
2023/03/14 06:12:30;;;;;;;18.45;8.18;;;;;;;;;;5022830;28;20693;-67
2023/03/14 06:14:56;;;;;;;19.67;7.57;;;;;;;;;;5026438;28;20037;-63
2023/03/14 06:17:23;;;;;;;18.27;7.90;;;;;;;;;;5027276;28;20413;-65
2023/03/14 06:19:49;;;;;;;16.65;7.93;;;;;;;;;;5025307;28;20567;-65
2023/03/14 06:22:17;;;;;;;14.38;6.43;;;;;;;;;;5027705;28;20037;-65
2023/03/14 06:24:44;;;;;;;18.63;7.97;;;;;;;;;;5026469;28;20099;-65
2023/03/14 06:27:10;;;;;;;19.25;6.43;;;;;;;;;;5027544;28;20045;-64
2023/03/14 06:29:37;;;;;;;14.65;6.43;;;;;;;;;;5026023;28;20154;-64
2023/03/14 06:32:05;;;;;;;12.57;6.30;;;;;;;;;;5029160;28;20162;-61
2023/03/14 06:34:31;;;;;;;17.92;7.38;;;;;;;;;;5026392;28;20037;-64
2023/03/14 06:36:58;;;;;;;13.85;4.90;;;;;;;;;;5028223;28;20057;-63
2023/03/14 06:39:24;;;;;;;19.20;7.28;;;;;;;;;;5026137;28;20069;-64
2023/03/14 06:41:51;;;;;;;14.65;6.78;;;;;;;;;;5027263;28;20109;-64
2023/03/14 06:44:18;;;;;;;8.02;4.40;;;;;;;;;;5027620;28;20041;-64
2023/03/14 06:46:44;;;;;;;15.98;6.93;;;;;;;;;;5026752;28;20478;-64
2023/03/14 06:49:11;;;;;;;17.48;7.07;;;;;;;;;;5024371;28;20056;-64
2023/03/14 06:51:37;;;;;;;7.72;4.57;;;;;;;;;;5025778;28;20191;-64
2023/03/14 06:54:04;;;;;;;17.02;6.25;;;;;;;;;;5026902;28;20045;-63
2023/03/14 06:56:31;;;;;;;10.65;5.40;;;;;;;;;;5026602;28;20033;-64
2023/03/14 06:58:57;;;;;;;12.82;5.28;;;;;;;;;;5024348;28;20048;-64
2023/03/14 07:01:25;;;;;;;12.70;6.60;;;;;;;;;;5027729;28;20034;-64
2023/03/14 07:03:52;;;;;;;14.18;6.50;;;;;;;;;;5026412;28;20075;-64
2023/03/14 07:06:19;;;;;;;18.08;8.85;;;;;;;;;;5027327;28;20037;-63
2023/03/14 07:08:46;;;;;;;10.40;5.20;;;;;;;;;;5024533;28;20037;-64
2023/03/14 07:11:12;;;;;;;23.00;6.78;;;;;;;;;;5027884;28;20095;-63
2023/03/14 07:13:39;;;;;;;14.15;5.05;;;;;;;;;;5023341;28;20076;-64
2023/03/14 07:16:06;;;;;;;11.25;5.97;;;;;;;;;;5027007;28;20041;-63
2023/03/14 07:18:33;;;;;;;9.55;5.70;;;;;;;;;;5026142;28;20042;-64
2023/03/14 07:21:00;;;;;;;13.43;5.53;;;;;;;;;;5026665;28;20047;-64
2023/03/14 07:23:27;;;;;;;7.90;5.28;;;;;;;;;;5026183;28;20092;-62
2023/03/14 07:25:53;;;;;;;15.35;7.53;;;;;;;;;;5026871;28;20033;-63
2023/03/14 07:28:20;;;;;;;16.08;7.40;;;;;;;;;;5024742;28;20498;-64
2023/03/14 07:30:48;;;;;;;16.80;9.63;;;;;;;;;;5025326;28;20040;-64
2023/03/14 07:33:14;;;;;;;18.10;7.57;;;;;;;;;;5027723;28;20151;-63
2023/03/14 07:35:41;;;;;;;27.73;7.82;;;;;;;;;;5024911;28;20441;-63
2023/03/14 07:38:08;;;;;;;19.27;7.80;;;;;;;;;;5025619;28;20083;-63
2023/03/14 07:40:34;;;;;;;16.95;8.27;;;;;;;;;;5023924;28;20770;-64
2023/03/14 07:43:01;;;;;;;17.30;6.90;;;;;;;;;;5026182;28;20048;-63
2023/03/14 07:45:28;;;;;;;16.38;6.55;;;;;;;;;;5024704;28;20065;-63
2023/03/14 07:47:57;;;;;;;18.00;8.07;;;;;;;;;;5023988;28;20120;-62
2023/03/14 07:50:24;;;;;;;21.38;8.63;;;;;;;;;;5026044;28;20061;-63
2023/03/14 07:52:51;;;;;;;20.10;9.23;;;;;;;;;;5026897;28;20131;-64
2023/03/14 07:55:18;;;;;;;16.75;7.72;;;;;;;;;;5026883;28;20040;-64
2023/03/14 07:57:44;;;;;;;17.55;9.57;;;;;;;;;;5024176;28;20056;-64
2023/03/14 08:00:11;;;;;;;20.17;9.45;;;;;;;;;;5026092;28;20041;-63
2023/03/14 08:02:38;;;;;;;19.92;8.13;;;;;;;;;;5026406;28;20577;-64
2023/03/14 08:05:05;;;;;;;16.20;8.05;;;;;;;;;;5025583;28;20518;-63
2023/03/14 08:07:31;;;;;;;17.05;5.15;;;;;;;;;;5025495;28;20496;-64
2023/03/14 08:09:58;;;;;;;14.00;7.28;;;;;;;;;;5025754;28;20033;-64
2023/03/14 08:12:24;;;;;;;12.30;6.25;;;;;;;;;;5024847;28;20472;-65
2023/03/14 08:14:51;;;;;;;19.10;9.60;;;;;;;;;;5026062;28;21733;-64
2023/03/14 08:17:18;;;;;;;15.85;8.02;;;;;;;;;;5037600;28;20075;-64
2023/03/14 08:19:44;;;;;;;17.88;8.35;;;;;;;;;;5023072;28;20094;-64
2023/03/14 08:22:11;;;;;;;15.27;6.32;;;;;;;;;;5025669;28;20433;-64
2023/03/14 08:24:37;;;;;;;9.98;4.28;;;;;;;;;;5026801;28;20048;-64
2023/03/14 08:27:04;;;;;;;19.95;8.90;;;;;;;;;;5029397;28;20139;-65
2023/03/14 08:29:31;;;;;;;14.43;5.15;;;;;;;;;;5027859;28;20753;-64
2023/03/14 08:31:57;;;;;;;14.95;6.95;;;;;;;;;;5030008;28;20151;-64
2023/03/14 08:34:24;;;;;;;23.00;7.95;;;;;;;;;;5027911;28;20045;-64
2023/03/14 08:36:51;;;;;;;10.63;5.28;;;;;;;;;;5030627;28;20041;-65
2023/03/14 08:39:20;;;;;;;23.00;8.70;;;;;;;;;;5028683;28;20144;-64
2023/03/14 08:41:47;;;;;;;16.45;6.88;;;;;;;;;;5029446;28;20323;-64
2023/03/14 08:44:14;;;;;;;13.27;4.97;;;;;;;;;;5027379;28;20037;-64
2023/03/14 08:46:40;;;;;;;11.70;5.75;;;;;;;;;;5028631;28;20056;-64
2023/03/14 08:49:07;;;;;;;19.73;7.80;;;;;;;;;;5029638;28;20072;-64
2023/03/14 08:51:33;;;;;;;13.10;6.68;;;;;;;;;;5027270;28;20484;-64
2023/03/14 08:54:00;;;;;;;14.15;7.32;;;;;;;;;;5029533;28;20053;-63
2023/03/14 08:56:27;;;;;;;18.23;7.22;;;;;;;;;;5029027;28;20037;-63
2023/03/14 08:58:53;;;;;;;15.07;7.45;;;;;;;;;;5025571;28;20072;-63
2023/03/14 09:01:23;;;;;;;13.02;7.22;;;;;;;;;;5027349;28;20044;-64
2023/03/14 09:03:50;;;;;;;19.73;8.57;;;;;;;;;;5028842;28;20167;-64
2023/03/14 09:06:17;;;;;;;15.43;7.68;;;;;;;;;;5028828;28;20037;-63
2023/03/14 09:08:45;;;;;;;19.83;8.48;;;;;;;;;;5025895;28;20847;-63
2023/03/14 09:11:11;;;;;;;14.57;6.82;;;;;;;;;;5028743;28;20045;-64
2023/03/14 09:13:38;;;;;;;16.67;8.13;;;;;;;;;;5029480;28;20032;-63
2023/03/14 09:16:05;;;;;;;6.47;3.63;;;;;;;;;;5028637;28;20119;-64
2023/03/14 09:18:32;;;;;;;12.10;5.97;;;;;;;;;;5027499;28;20114;-64
2023/03/14 09:20:58;;;;;;;20.77;8.43;;;;;;;;;;5028170;28;20041;-64
2023/03/14 09:23:25;;;;;;;14.65;6.97;;;;;;;;;;5027506;28;20047;-64
2023/03/14 09:25:58;;;;;;;11.50;5.07;;;;;;;;;;5028447;28;20038;-64
2023/03/14 09:28:25;;;;;;;12.10;6.45;;;;;;;;;;5025643;28;20037;-64
2023/03/14 09:30:52;;;;;;;17.63;7.55;;;;;;;;;;5027886;28;20783;-64
2023/03/14 09:33:18;;;;;;;10.48;5.43;;;;;;;;;;5027495;28;20048;-63
2023/03/14 09:35:45;;;;;;;10.88;5.68;;;;;;;;;;5025330;28;20037;-64
2023/03/14 09:38:12;;;;;;;15.82;5.95;;;;;;;;;;5028060;28;20033;-64
2023/03/14 09:40:39;;;;;;;11.23;5.45;;;;;;;;;;5026377;28;20038;-64
2023/03/14 09:43:06;;;;;;;11.88;6.13;;;;;;;;;;5028876;28;20041;-64
2023/03/14 09:45:35;;;;;;;18.13;7.30;;;;;;;;;;5027853;28;20042;-64
2023/03/14 09:48:03;;;;;;;16.58;7.10;;;;;;;;;;5025074;28;20837;-64
2023/03/14 09:50:56;;;;;;;17.65;7.45;;;;;;;;;;5026432;28;20117;-65
2023/03/14 09:53:26;;;;;;;7.93;4.85;;;;;;;;;;5027556;28;20858;-64
2023/03/14 09:55:55;;;;;;;7.03;3.33;;;;;;;;;;5027954;28;20569;-67
2023/03/14 09:58:23;;;;;;;10.85;4.70;;;;;;;;;;5026860;28;20041;-65
2023/03/14 10:00:54;;;;;;;16.42;7.20;;;;;;;;;;5030147;28;20044;-63
2023/03/14 10:03:21;;;;;;;14.00;6.50;;;;;;;;;;5026950;28;20083;-63
2023/03/14 10:05:47;;;;;;;12.90;7.22;;;;;;;;;;5027991;28;20173;-64
2023/03/14 10:08:15;;;;;;;11.75;5.70;;;;;;;;;;5038425;28;20039;-64
2023/03/14 10:10:42;;;;;;;12.60;5.25;;;;;;;;;;5026084;28;20467;-64
2023/03/14 10:13:09;;;;;;;14.95;6.15;;;;;;;;;;5029536;28;20084;-64
2023/03/14 10:15:37;;;;;;;11.48;5.70;;;;;;;;;;5027858;28;20576;-67
2023/03/14 10:18:09;;;;;;;11.75;5.97;;;;;;;;;;5027525;28;20036;-64
2023/03/14 10:20:37;;;;;;;13.95;5.57;;;;;;;;;;5026023;28;20042;-64
2023/03/14 10:23:19;;;;;;;16.77;6.15;;;;;;;;;;5026737;28;20573;-65
2023/03/14 10:26:00;;;;;;;13.82;6.45;;;;;;;;;;5024064;28;20049;-63
2023/03/14 10:28:28;;;;;;;18.05;6.55;;;;;;;;;;5025549;28;20436;-63
2023/03/14 10:30:55;;;;;;;11.38;4.07;;;;;;;;;;5026128;28;20050;-63
2023/03/14 10:33:23;;;;;;;11.65;5.32;;;;;;;;;;5026772;28;20125;-65
2023/03/14 10:35:55;;;;;;;15.93;7.03;;;;;;;;;;5026143;28;20571;-63
2023/03/14 10:38:24;;;;;;;16.52;6.80;;;;;;;;;;5024714;28;20131;-64
2023/03/14 10:40:52;;;;;;;21.52;7.28;;;;;;;;;;5024148;28;20557;-65
2023/03/14 10:43:24;;;;;;;18.92;7.43;;;;;;;;;;5025995;28;20833;-64
2023/03/14 10:45:58;;;;;;;19.00;7.57;;;;;;;;;;5026720;28;20398;-64
2023/03/14 10:48:30;;;;;;;10.82;5.97;;;;;;;;;;5026967;28;20053;-65
2023/03/14 10:50:58;;;;;;;11.88;6.80;;;;;;;;;;5026695;28;21033;-64
2023/03/14 10:53:25;;;;;;;13.65;6.70;;;;;;;;;;5025912;28;20131;-64
2023/03/14 10:55:52;;;;;;;7.93;3.65;;;;;;;;;;5026442;28;20036;-63
2023/03/14 10:58:28;;;;;;;16.83;6.05;;;;;;;;;;5025430;28;20052;-68
2023/03/14 11:01:06;;;;;;;19.48;6.78;;;;;;;;;;5026380;28;20116;-64
2023/03/14 11:03:34;;;;;;;14.75;6.43;;;;;;;;;;5026202;28;20045;-64
2023/03/14 11:06:13;;;;;;;14.27;5.80;;;;;;;;;;5027331;28;20029;-64
2023/03/14 11:08:43;;;;;;;16.20;4.57;;;;;;;;;;5023110;28;20115;-64
2023/03/14 11:11:21;;;;;;;13.18;5.03;;;;;;;;;;5025910;28;20146;-64
2023/03/14 11:13:55;;;;;;;9.65;4.55;;;;;;;;;;5024507;28;20183;-63
2023/03/14 11:16:21;;;;;;;;;;;;;;;;;;5028105;28;21890;-64
2023/03/14 11:19:04;;;;;;;9.98;4.28;;;;;;;;;;5025259;28;19917;-63
2023/03/14 11:21:36;;;;;;;12.02;5.00;;;;;;;;;;5028210;28;20163;-65
2023/03/14 11:24:25;;;;;;;11.38;5.22;;;;;;;;;;5017415;28;20080;-64
2023/03/14 11:27:10;;;;;;;10.10;4.70;;;;;;;;;;5020436;28;20798;-63
2023/03/14 11:29:40;;;;;;;14.13;5.47;;;;;;;;;;5017802;28;20176;-65
2023/03/14 11:32:24;;;;;;;9.82;4.55;;;;;;;;;;5017810;28;20052;-63
2023/03/14 11:34:50;;;;;;;;;;;;;;;;;;5017478;28;20041;-63
2023/03/14 11:37:37;;;;;;;9.27;4.40;;;;;;;;;;5017390;28;20555;-63
2023/03/14 11:40:06;;;;;;;10.50;4.05;;;;;;;;;;5013639;28;20040;-64
2023/03/14 11:42:33;;;;;;;5.85;2.35;;;;;;;;;;5017054;28;20434;-64
2023/03/14 11:45:01;;;;;;;5.32;2.85;;;;;;;;;;5018577;28;20643;-62
2023/03/14 11:47:33;;;;;;;13.43;4.55;;;;;;;;;;5017201;28;20044;-63
2023/03/14 11:50:22;;;;;;;6.65;2.65;;;;;;;;;;5016869;28;20111;-63
2023/03/14 11:53:02;;;;;;;13.32;5.05;;;;;;;;;;5018427;28;20092;-63
2023/03/14 11:55:49;;;;;;;7.57;3.22;;;;;;;;;;5016407;28;20087;-63
2023/03/14 11:58:26;;;;;;;8.80;4.13;;;;;;;;;;5016115;28;20049;-61
2023/03/14 12:00:54;;;;;;;12.43;4.45;;;;;;;;;;5018460;28;20107;-62
2023/03/14 12:03:24;;;;;;;8.30;3.03;;;;;;;;;;5023392;28;20056;-63
2023/03/14 12:06:03;;;;;;;5.32;2.60;;;;;;;;;;5026358;28;20182;-63
2023/03/14 12:08:38;;;;;;;6.43;2.92;;;;;;;;;;5024971;28;20068;-63
2023/03/14 12:11:18;;;;;;;12.45;4.05;;;;;;;;;;5035156;28;20451;-65
2023/03/14 12:13:48;;;;;;;16.15;5.90;;;;;;;;;;5031842;28;20371;-62
2023/03/14 12:16:27;;;;;;;6.28;3.75;;;;;;;;;;5025738;28;20112;-64
2023/03/14 12:18:54;;;;;;;7.43;3.42;;;;;;;;;;5021772;28;20052;-62
2023/03/14 12:21:21;;;;;;;9.25;2.88;;;;;;;;;;5022699;28;20055;-64
2023/03/14 12:23:53;;;;;;;12.65;5.70;;;;;;;;;;5025916;28;20514;-64
2023/03/14 12:26:19;;;;;;;9.65;3.95;;;;;;;;;;5024990;28;20065;-66
2023/03/14 12:28:51;;;;;;;8.35;3.35;;;;;;;;;;5021314;28;20064;-64
2023/03/14 12:31:30;;;;;;;8.75;3.22;;;;;;;;;;5022561;28;20048;-64
2023/03/14 12:34:04;;;;;;;10.77;4.60;;;;;;;;;;5055936;28;20177;-64
2023/03/14 12:36:43;;;;;;;5.28;2.20;;;;;;;;;;5023289;28;20475;-64
2023/03/14 12:39:28;;;;;;;8.68;4.15;;;;;;;;;;5024160;28;20045;-65
2023/03/14 12:42:04;;;;;;;4.15;2.25;;;;;;;;;;5022429;28;20041;-65
2023/03/14 12:44:30;;;;;;;11.13;5.97;;;;;;;;;;5022653;28;20041;-65
2023/03/14 12:47:00;;;;;;;4.68;2.38;;;;;;;;;;5023795;28;20040;-65
2023/03/14 12:49:33;;;;;;;5.65;2.70;;;;;;;;;;5041997;28;20784;-64
2023/03/14 12:52:00;;;;;;;5.80;2.50;;;;;;;;;;5024695;28;20383;-64
2023/03/14 12:54:39;;;;;;;9.52;4.30;;;;;;;;;;5024218;28;20041;-62
2023/03/14 12:57:26;;;;;;;4.93;2.38;;;;;;;;;;5023649;28;20045;-63
2023/03/14 13:00:07;;;;;;;4.03;2.30;;;;;;;;;;5016948;28;20045;-65
2023/03/14 13:02:43;;;;;;;6.53;3.03;;;;;;;;;;5018486;28;20048;-64
2023/03/14 13:05:20;;;;;;;11.82;4.63;;;;;;;;;;5036211;28;20204;-63
2023/03/14 13:07:49;;;;;;;11.35;5.22;;;;;;;;;;5023636;28;20094;-63
2023/03/14 13:10:19;;;;;;;10.65;5.22;;;;;;;;;;5022906;28;20414;-64
2023/03/14 13:12:49;;;;;;;9.15;4.38;;;;;;;;;;5028160;28;20873;-62
2023/03/14 13:15:26;;;;;;;10.93;5.32;;;;;;;;;;5028091;28;20048;-65
2023/03/14 13:17:55;;;;;;;5.90;2.88;;;;;;;;;;5026813;28;20047;-63
2023/03/14 13:20:31;;;;;;;12.80;4.40;;;;;;;;;;5049296;28;20044;-65
2023/03/14 13:22:58;;;;;;;10.18;4.90;;;;;;;;;;5027556;28;22237;-65
2023/03/14 13:25:24;;;;;;;12.18;5.25;;;;;;;;;;5027655;28;20038;-62
2023/03/14 13:27:53;;;;;;;7.50;3.80;;;;;;;;;;5027141;28;20862;-62
2023/03/14 13:30:27;;;;;;;10.57;4.85;;;;;;;;;;5024848;28;20048;-63
2023/03/14 13:32:55;;;;;;;7.60;3.92;;;;;;;;;;5027761;28;20044;-62
2023/03/14 13:35:29;;;;;;;14.00;5.05;;;;;;;;;;5026880;28;20118;-65
2023/03/14 13:38:00;;;;;;;6.88;2.70;;;;;;;;;;5027595;28;20041;-64
2023/03/14 13:40:32;;;;;;;8.02;4.45;;;;;;;;;;5027049;28;20119;-64
2023/03/14 13:43:06;;;;;;;14.30;5.28;;;;;;;;;;5027010;28;21671;-64
2023/03/14 13:45:42;;;;;;;11.30;4.50;;;;;;;;;;5026637;28;20136;-64
2023/03/14 13:48:10;;;;;;;10.35;4.15;;;;;;;;;;5024733;28;20044;-64
2023/03/14 13:50:37;;;;;;;6.10;3.03;;;;;;;;;;5024947;28;20099;-64
2023/03/14 13:53:04;;;;;;;9.05;4.25;;;;;;;;;;5024688;28;20055;-63
2023/03/14 13:55:30;;;;;;;8.35;3.55;;;;;;;;;;5025915;28;20121;-64
2023/03/14 13:57:57;;;;;;;8.77;4.18;;;;;;;;;;5028272;28;20056;-65
2023/03/14 14:00:29;;;;;;;9.93;3.88;;;;;;;;;;5024864;28;21682;-64
2023/03/14 14:02:56;;;;;;;8.00;4.00;;;;;;;;;;5025287;28;20041;-63
2023/03/14 14:05:23;;;;;;;9.23;3.92;;;;;;;;;;5027735;28;20051;-62
2023/03/14 14:07:51;;;;;;;11.60;3.97;;;;;;;;;;5027277;28;20033;-62
2023/03/14 14:10:19;;;;;;;8.38;3.80;;;;;;;;;;5024658;28;20506;-62
2023/03/14 14:12:49;;;;;;;9.65;4.40;;;;;;;;;;5024868;28;20429;-61
2023/03/14 14:15:24;;;;;;;13.20;4.13;;;;;;;;;;5025925;28;20092;-62
2023/03/14 14:17:52;;;;;;;10.50;3.90;;;;;;;;;;5026197;28;20047;-62
2023/03/14 14:20:19;;;;;;;7.68;3.67;;;;;;;;;;5023925;28;20133;-62
2023/03/14 14:22:46;;;;;;;8.93;4.18;;;;;;;;;;5023235;28;20049;-63
2023/03/14 14:25:16;;;;;;;10.43;4.70;;;;;;;;;;5026495;28;20136;-62
2023/03/14 14:27:44;;;;;;;13.13;4.13;;;;;;;;;;5024686;28;20042;-63
2023/03/14 14:30:14;;;;;;;5.60;2.78;;;;;;;;;;5025142;28;20041;-63
2023/03/14 14:32:41;;;;;;;11.52;3.35;;;;;;;;;;5024834;28;20143;-63
2023/03/14 14:35:10;;;;;;;6.05;3.22;;;;;;;;;;5025077;28;20581;-63
2023/03/14 14:37:45;;;;;;;9.00;3.58;;;;;;;;;;5024796;28;20183;-63
2023/03/14 14:40:17;;;;;;;7.10;3.17;;;;;;;;;;5025169;28;20048;-63
2023/03/14 14:42:44;;;;;;;6.03;2.42;;;;;;;;;;5022782;28;20410;-63
2023/03/14 14:45:14;;;;;;;8.52;3.03;;;;;;;;;;5025340;28;20041;-62